Time;durP1;ratioP1;P1;durP2;ratioP2;P2;SDS_P1;SDS_P2;PMS_P1;PMS_P2;Temp;Humidity;BMP_temperature;BMP_pressure;BME280_temperature;BME280_humidity;BME280_pressure;Samples;Min_cycle;Max_cycle;Signal;HPM_P1;HPM_P2
2023/10/02 11:25:55;;;;;;;13.80;5.40;;;26.00;99.90;;;;;;4989699;28;20221;-71
2023/10/02 11:28:32;;;;;;;12.80;5.30;;;26.00;99.90;;;;;;4993582;28;20212;-70
2023/10/02 11:31:29;;;;;;;14.98;5.22;;;25.80;99.90;;;;;;4993150;28;20713;-71
2023/10/02 11:34:02;;;;;;;16.17;5.75;;;25.80;99.90;;;;;;4990749;28;20334;-72
2023/10/02 11:36:33;;;;;;;12.88;5.15;;;25.80;99.90;;;;;;4993690;28;20215;-71
2023/10/02 11:39:08;;;;;;;15.05;5.75;;;25.80;99.90;;;;;;4993074;28;20234;-71
2023/10/02 11:41:36;;;;;;;12.68;5.40;;;25.90;99.90;;;;;;4992686;28;20733;-72
2023/10/02 11:44:05;;;;;;;14.38;5.55;;;25.80;99.90;;;;;;4993259;28;20202;-71
2023/10/02 11:46:32;;;;;;;13.43;5.68;;;26.00;99.90;;;;;;4993429;28;20202;-71
2023/10/02 11:48:59;;;;;;;13.63;4.90;;;26.10;99.90;;;;;;4993152;28;20210;-71
2023/10/02 11:51:28;;;;;;;14.57;5.93;;;26.10;99.90;;;;;;4992411;28;20313;-73
2023/10/02 11:53:59;;;;;;;14.40;5.28;;;26.10;99.90;;;;;;4993369;28;20206;-73
2023/10/02 11:56:27;;;;;;;13.65;5.25;;;26.10;99.90;;;;;;4992799;28;20202;-71
2023/10/02 11:58:57;;;;;;;16.67;5.47;;;26.10;99.90;;;;;;4996030;28;20265;-71
2023/10/02 12:01:26;;;;;;;16.23;5.18;;;26.20;99.90;;;;;;4996111;28;20598;-72
2023/10/02 12:03:56;;;;;;;13.45;5.57;;;26.30;99.90;;;;;;4992904;28;20207;-72
2023/10/02 12:06:25;;;;;;;13.93;5.25;;;26.40;99.90;;;;;;4995956;28;20474;-70
2023/10/02 12:08:56;;;;;;;15.57;5.88;;;26.40;99.90;;;;;;5008449;28;20304;-70
2023/10/02 12:11:24;;;;;;;17.83;6.05;;;26.50;99.90;;;;;;5012936;28;20320;-69
2023/10/02 12:13:51;;;;;;;15.00;5.00;;;26.50;99.90;;;;;;4995589;28;20213;-71
2023/10/02 12:16:21;;;;;;;15.05;6.40;;;26.50;99.90;;;;;;4977968;28;20210;-70
2023/10/02 12:18:49;;;;;;;14.30;5.72;;;26.40;99.90;;;;;;5006777;28;20721;-71
2023/10/02 12:21:16;;;;;;;13.50;5.43;;;26.60;99.90;;;;;;5005073;28;20269;-70
2023/10/02 12:23:44;;;;;;;14.95;5.75;;;26.80;99.90;;;;;;4994777;28;20213;-71
2023/10/02 12:26:14;;;;;;;15.13;5.45;;;27.00;99.90;;;;;;4995162;28;20213;-72
2023/10/02 12:28:42;;;;;;;12.98;4.90;;;27.20;99.90;;;;;;4995458;28;20198;-70
2023/10/02 12:31:10;;;;;;;16.30;6.03;;;27.30;99.90;;;;;;4990492;28;20333;-72
2023/10/02 12:33:39;;;;;;;14.55;5.22;;;27.50;99.90;;;;;;4994599;28;20293;-71
2023/10/02 12:36:14;;;;;;;13.43;5.35;;;27.50;99.90;;;;;;4994128;28;20323;-71
2023/10/02 12:38:42;;;;;;;13.98;5.30;;;27.50;99.90;;;;;;4994705;28;20285;-72
2023/10/02 12:41:13;;;;;;;16.00;5.88;;;27.70;99.90;;;;;;4993704;28;20322;-71
2023/10/02 12:43:40;;;;;;;12.30;5.07;;;27.80;99.90;;;;;;4994474;28;20210;-72
2023/10/02 12:46:07;;;;;;;16.10;5.57;;;27.80;99.90;;;;;;4994459;28;20304;-72
2023/10/02 12:48:34;;;;;;;13.35;5.68;;;28.00;99.90;;;;;;4994770;28;20210;-71
2023/10/02 12:51:06;;;;;;;16.25;5.45;;;27.90;99.90;;;;;;4994340;28;20223;-72
2023/10/02 12:53:36;;;;;;;18.38;6.15;;;27.60;99.90;;;;;;4994522;28;20576;-71
2023/10/02 12:56:04;;;;;;;13.57;5.15;;;27.40;99.90;;;;;;4994658;28;20202;-71
2023/10/02 12:58:32;;;;;;;16.25;6.00;;;27.40;99.90;;;;;;4994564;28;20216;-72
2023/10/02 13:01:00;;;;;;;13.63;5.50;;;27.40;99.90;;;;;;4993747;28;20312;-71
2023/10/02 13:03:28;;;;;;;17.23;6.53;;;27.30;99.90;;;;;;4994260;28;20210;-69
2023/10/02 13:05:57;;;;;;;17.67;6.20;;;27.40;99.90;;;;;;4994104;28;20207;-72
2023/10/02 13:08:26;;;;;;;17.80;5.95;;;27.40;99.90;;;;;;4994337;28;20276;-69
2023/10/02 13:10:53;;;;;;;15.38;5.90;;;27.40;99.90;;;;;;4993715;28;20284;-70
2023/10/02 13:13:20;;;;;;;19.23;6.47;;;27.40;99.90;;;;;;4994159;28;20245;-72
2023/10/02 13:15:48;;;;;;;15.60;5.88;;;27.40;99.90;;;;;;4994280;28;20321;-71
2023/10/02 13:18:15;;;;;;;15.98;5.80;;;27.40;99.90;;;;;;4994113;28;20249;-72
2023/10/02 13:20:43;;;;;;;17.30;5.80;;;27.20;99.90;;;;;;4993909;28;20253;-70
2023/10/02 13:23:12;;;;;;;16.40;5.50;;;27.20;99.90;;;;;;4993842;28;20213;-72
2023/10/02 13:25:42;;;;;;;15.68;6.07;;;27.20;99.90;;;;;;4993078;28;20206;-73
2023/10/02 13:28:11;;;;;;;14.35;5.05;;;27.20;99.90;;;;;;4993713;28;20242;-70
2023/10/02 13:30:39;;;;;;;14.95;5.65;;;27.30;99.90;;;;;;4990478;28;20210;-73
2023/10/02 13:33:07;;;;;;;13.75;4.97;;;27.30;99.90;;;;;;4991494;28;20238;-73
2023/10/02 13:35:38;;;;;;;11.20;4.97;;;27.40;99.90;;;;;;4993445;28;20678;-72
2023/10/02 13:38:06;;;;;;;16.65;5.93;;;27.20;99.90;;;;;;4993518;28;20689;-73
2023/10/02 13:40:36;;;;;;;16.30;5.82;;;27.20;99.90;;;;;;4993425;28;20226;-74
2023/10/02 13:43:05;;;;;;;13.82;5.78;;;27.20;99.90;;;;;;4982618;28;20643;-73
2023/10/02 13:45:35;;;;;;;15.30;6.32;;;27.20;99.90;;;;;;4993894;28;20302;-72
2023/10/02 13:48:04;;;;;;;15.15;5.93;;;27.30;99.90;;;;;;4973829;28;20207;-72
2023/10/02 13:50:35;;;;;;;13.63;5.88;;;27.30;99.90;;;;;;4988223;28;20202;-73
2023/10/02 13:53:03;;;;;;;12.48;5.13;;;27.40;99.90;;;;;;4993802;28;20213;-74
2023/10/02 13:55:35;;;;;;;15.18;5.88;;;27.40;99.90;;;;;;4993720;28;20210;-73
2023/10/02 13:58:06;;;;;;;15.07;5.72;;;27.40;99.90;;;;;;4993688;28;20298;-71
2023/10/02 14:00:39;;;;;;;15.43;5.38;;;27.50;99.90;;;;;;4993036;28;20241;-71
2023/10/02 14:03:10;;;;;;;17.83;6.38;;;27.50;99.90;;;;;;4993442;28;20213;-71
2023/10/02 14:05:39;;;;;;;15.32;5.70;;;27.50;99.90;;;;;;4993684;28;20213;-70
2023/10/02 14:08:07;;;;;;;13.75;5.43;;;27.40;99.90;;;;;;4993370;28;20203;-70
2023/10/02 14:10:34;;;;;;;15.68;5.10;;;27.40;99.90;;;;;;4993301;28;20232;-73
2023/10/02 14:13:03;;;;;;;16.08;5.80;;;27.30;99.90;;;;;;4992664;28;20230;-73
2023/10/02 14:15:34;;;;;;;17.92;6.88;;;27.30;99.90;;;;;;4993849;28;20305;-70
2023/10/02 14:18:01;;;;;;;16.88;6.05;;;27.10;99.90;;;;;;4994294;28;20209;-70
2023/10/02 14:20:28;;;;;;;15.40;5.45;;;27.10;99.90;;;;;;4993446;28;20214;-70
2023/10/02 14:22:55;;;;;;;15.93;5.93;;;27.10;99.90;;;;;;4993521;28;20293;-71
2023/10/02 14:25:24;;;;;;;14.73;5.65;;;27.00;99.90;;;;;;4993511;28;20253;-72
2023/10/02 14:27:52;;;;;;;17.45;5.75;;;27.00;99.90;;;;;;5009709;28;20658;-71
2023/10/02 14:30:19;;;;;;;17.75;6.53;;;26.90;99.90;;;;;;4999563;28;20293;-72
2023/10/02 14:32:49;;;;;;;17.05;6.13;;;27.00;99.90;;;;;;4993769;28;20313;-70
2023/10/02 14:35:17;;;;;;;15.52;5.55;;;26.90;99.90;;;;;;4994006;28;20206;-71
2023/10/02 14:37:48;;;;;;;19.20;6.90;;;26.80;99.90;;;;;;4994333;28;20302;-74
2023/10/02 14:40:19;;;;;;;16.00;6.00;;;26.90;99.90;;;;;;4994115;28;20536;-69
2023/10/02 14:42:48;;;;;;;19.40;6.53;;;26.90;99.90;;;;;;4993758;28;20261;-74
2023/10/02 14:45:15;;;;;;;19.58;6.88;;;26.90;99.90;;;;;;4994108;28;20210;-70
2023/10/02 14:47:43;;;;;;;21.30;8.20;;;27.00;99.90;;;;;;4993732;28;20248;-72
2023/10/02 14:50:16;;;;;;;19.50;7.20;;;26.80;99.90;;;;;;4993710;28;20210;-70
2023/10/02 14:52:43;;;;;;;22.55;7.95;;;26.70;99.90;;;;;;4993828;28;20237;-74
2023/10/02 14:55:16;;;;;;;20.10;7.47;;;26.70;99.90;;;;;;4993883;28;20245;-72
2023/10/02 14:57:45;;;;;;;20.13;7.20;;;26.70;99.90;;;;;;4993523;28;20575;-72
2023/10/02 15:00:14;;;;;;;22.17;8.10;;;26.50;99.90;;;;;;4993716;28;20208;-71
2023/10/02 15:02:42;;;;;;;18.88;7.78;;;26.60;99.90;;;;;;4993381;28;20242;-71
2023/10/02 15:05:15;;;;;;;23.75;8.73;;;26.60;99.90;;;;;;4993342;28;20280;-71
2023/10/02 15:07:45;;;;;;;20.17;7.43;;;26.50;99.90;;;;;;4993576;28;20214;-71
2023/10/02 15:10:16;;;;;;;24.05;7.75;;;26.40;99.90;;;;;;4993516;28;20606;-74
2023/10/02 15:12:43;;;;;;;22.25;7.32;;;26.50;99.90;;;;;;4993199;28;20234;-73
2023/10/02 15:15:14;;;;;;;22.77;7.90;;;26.50;99.90;;;;;;4993165;28;20253;-69
2023/10/02 15:17:43;;;;;;;25.65;8.25;;;26.50;99.90;;;;;;4993731;28;20312;-73
2023/10/02 15:20:14;;;;;;;18.50;7.68;;;26.50;99.90;;;;;;4993742;28;20210;-72
2023/10/02 15:22:42;;;;;;;24.50;8.65;;;26.50;99.90;;;;;;4993508;28;20286;-74
2023/10/02 15:25:13;;;;;;;24.25;8.05;;;26.40;99.90;;;;;;4993351;28;20478;-74
2023/10/02 15:27:43;;;;;;;24.88;9.10;;;26.30;99.90;;;;;;4993188;28;20214;-72
2023/10/02 15:30:12;;;;;;;25.27;8.05;;;26.20;99.90;;;;;;4993315;28;20297;-73
2023/10/02 15:32:39;;;;;;;21.33;7.57;;;26.10;99.90;;;;;;4993535;28;20230;-72
2023/10/02 15:35:07;;;;;;;23.92;8.32;;;26.00;99.90;;;;;;4993426;28;20241;-71
2023/10/02 15:37:37;;;;;;;28.77;10.32;;;25.90;99.90;;;;;;4993053;28;20284;-72
2023/10/02 15:40:08;;;;;;;21.50;7.38;;;25.90;99.90;;;;;;4992881;28;20319;-72
2023/10/02 15:42:36;;;;;;;23.70;8.80;;;26.00;99.90;;;;;;4992964;28;20261;-72
2023/10/02 15:45:06;;;;;;;21.77;8.32;;;25.80;99.90;;;;;;4993036;28;20210;-71
2023/10/02 15:47:34;;;;;;;19.83;7.50;;;25.70;99.90;;;;;;4993095;28;20551;-70
2023/10/02 15:50:00;;;;;;;22.50;8.93;;;25.70;99.90;;;;;;4992972;28;20242;-71
2023/10/02 15:52:29;;;;;;;21.88;8.77;;;25.60;99.90;;;;;;4992653;28;20261;-70
2023/10/02 15:55:00;;;;;;;28.10;9.77;;;25.60;99.90;;;;;;4992981;28;20246;-74
2023/10/02 15:57:27;;;;;;;23.38;8.88;;;25.50;99.90;;;;;;4993103;28;20667;-72
2023/10/02 15:59:56;;;;;;;24.80;9.18;;;25.40;99.90;;;;;;4993277;28;20638;-70
2023/10/02 16:02:23;;;;;;;23.00;8.25;;;25.40;99.90;;;;;;4992953;28;20281;-70
2023/10/02 16:04:52;;;;;;;21.08;8.68;;;25.30;99.90;;;;;;4992881;28;20216;-71
2023/10/02 16:07:19;;;;;;;23.60;8.95;;;25.30;99.90;;;;;;4992746;28;20215;-73
2023/10/02 16:09:46;;;;;;;26.15;8.63;;;25.30;99.90;;;;;;4992994;28;20245;-71
2023/10/02 16:12:14;;;;;;;26.50;9.43;;;25.20;99.90;;;;;;4992616;28;20226;-74
2023/10/02 16:14:43;;;;;;;21.77;8.63;;;25.20;99.90;;;;;;4992582;28;20614;-73
2023/10/02 16:17:10;;;;;;;22.55;8.45;;;25.10;99.90;;;;;;4992503;28;20246;-73
2023/10/02 16:19:37;;;;;;;23.60;8.52;;;25.00;99.90;;;;;;4992520;28;20675;-73
2023/10/02 16:22:04;;;;;;;23.17;8.15;;;24.90;99.90;;;;;;4992318;28;20711;-73
2023/10/02 16:24:31;;;;;;;22.73;7.72;;;24.80;99.90;;;;;;4992467;28;20743;-69
2023/10/02 16:26:58;;;;;;;22.70;8.07;;;24.80;99.90;;;;;;4992706;28;20306;-70
2023/10/02 16:29:26;;;;;;;21.45;8.18;;;24.70;99.90;;;;;;4992656;28;20246;-69
2023/10/02 16:31:54;;;;;;;22.75;7.93;;;24.60;99.90;;;;;;4992453;28;20658;-71
2023/10/02 16:34:21;;;;;;;19.05;7.43;;;24.50;99.90;;;;;;4992484;28;20331;-70
2023/10/02 16:36:49;;;;;;;17.00;7.10;;;24.40;99.90;;;;;;4992967;28;20289;-74
2023/10/02 16:39:15;;;;;;;22.08;7.90;;;24.30;99.90;;;;;;4993035;28;20261;-71
2023/10/02 16:41:42;;;;;;;22.35;8.23;;;24.20;99.90;;;;;;4992240;28;20666;-70
2023/10/02 16:44:10;;;;;;;24.92;8.75;;;24.10;99.90;;;;;;4994694;28;20237;-71
2023/10/02 16:46:39;;;;;;;27.45;9.43;;;24.00;99.90;;;;;;4995995;28;20214;-71
2023/10/02 16:49:08;;;;;;;27.00;9.55;;;23.90;99.90;;;;;;4996172;28;20667;-72
2023/10/02 16:51:36;;;;;;;29.70;10.90;;;23.80;99.90;;;;;;4995881;28;20320;-71
2023/10/02 16:54:03;;;;;;;23.23;8.45;;;23.70;99.90;;;;;;4995768;28;20213;-70
2023/10/02 16:56:30;;;;;;;25.92;9.15;;;23.60;99.90;;;;;;4996002;28;20288;-69
2023/10/02 16:58:57;;;;;;;23.30;8.57;;;23.50;99.90;;;;;;4996017;28;20293;-73
2023/10/02 17:01:24;;;;;;;20.92;7.70;;;23.30;99.90;;;;;;4995576;28;20262;-70
2023/10/02 17:03:53;;;;;;;22.30;7.57;;;23.30;99.90;;;;;;4996157;28;20293;-69
2023/10/02 17:06:21;;;;;;;21.38;7.35;;;23.10;99.90;;;;;;4995607;28;20217;-68
2023/10/02 17:08:48;;;;;;;23.05;7.43;;;23.00;99.90;;;;;;4995974;28;20218;-68
2023/10/02 17:11:16;;;;;;;22.75;8.57;;;22.90;99.90;;;;;;4996070;28;20234;-68
2023/10/02 17:13:43;;;;;;;24.42;8.90;;;22.70;99.90;;;;;;4995724;28;20230;-68
2023/10/02 17:16:11;;;;;;;23.85;8.45;;;22.60;99.90;;;;;;4995634;28;20246;-68
2023/10/02 17:18:39;;;;;;;23.15;9.05;;;22.60;99.90;;;;;;4995663;28;20671;-68
2023/10/02 17:21:08;;;;;;;28.40;9.25;;;22.40;99.90;;;;;;4996096;28;20253;-69
2023/10/02 17:23:35;;;;;;;21.60;8.90;;;22.30;99.90;;;;;;4995498;28;20598;-69
2023/10/02 17:26:08;;;;;;;26.70;8.55;;;22.20;99.90;;;;;;4995726;28;20298;-68
2023/10/02 17:28:35;;;;;;;20.92;7.32;;;22.00;99.90;;;;;;4995850;28;20213;-68
2023/10/02 17:31:03;;;;;;;17.77;6.57;;;21.90;99.90;;;;;;4995432;28;20258;-69
2023/10/02 17:33:30;;;;;;;21.70;7.97;;;21.80;99.90;;;;;;4995092;28;20257;-69
2023/10/02 17:35:57;;;;;;;24.52;7.72;;;21.70;99.90;;;;;;4995346;28;20249;-69
2023/10/02 17:38:25;;;;;;;18.70;7.10;;;21.70;99.90;;;;;;4995329;28;20210;-70
2023/10/02 17:40:53;;;;;;;18.52;7.07;;;21.50;99.90;;;;;;4995019;28;20385;-69
2023/10/02 17:43:20;;;;;;;19.00;6.97;;;21.40;99.90;;;;;;4995409;28;20249;-69
2023/10/02 17:45:47;;;;;;;19.77;7.15;;;21.30;99.90;;;;;;4995182;28;20293;-72
2023/10/02 17:48:14;;;;;;;18.83;7.00;;;21.20;99.90;;;;;;4995278;28;20289;-70
2023/10/02 17:50:41;;;;;;;21.63;7.00;;;21.20;99.90;;;;;;4994973;28;20241;-70
2023/10/02 17:53:08;;;;;;;19.40;6.80;;;21.10;99.90;;;;;;4994869;28;20288;-70
2023/10/02 17:55:36;;;;;;;18.90;6.85;;;21.00;99.90;;;;;;4994210;28;20252;-69
2023/10/02 17:58:04;;;;;;;22.88;7.75;;;21.00;99.90;;;;;;4994939;28;20298;-69
2023/10/02 18:00:33;;;;;;;18.70;5.97;;;20.90;99.90;;;;;;4994773;28;20222;-69
2023/10/02 18:03:01;;;;;;;17.80;6.53;;;20.80;99.90;;;;;;4994689;28;20300;-70
2023/10/02 18:05:28;;;;;;;20.00;6.82;;;20.80;99.90;;;;;;4994192;28;20213;-70
2023/10/02 18:07:55;;;;;;;17.52;6.50;;;20.70;99.90;;;;;;4994167;28;20206;-70
2023/10/02 18:10:23;;;;;;;17.38;6.32;;;20.70;99.90;;;;;;4994092;28;20663;-70
2023/10/02 18:12:51;;;;;;;20.90;7.50;;;20.60;99.90;;;;;;4993798;28;20234;-72
2023/10/02 18:15:18;;;;;;;18.77;6.75;;;20.50;99.90;;;;;;4994249;28;20290;-70
2023/10/02 18:17:46;;;;;;;17.73;6.38;;;20.40;99.90;;;;;;4994288;28;20248;-70
2023/10/02 18:20:15;;;;;;;17.70;6.60;;;20.40;99.90;;;;;;4994208;28;20234;-70
2023/10/02 18:22:43;;;;;;;20.92;6.40;;;20.30;99.90;;;;;;4993966;28;20681;-71
2023/10/02 18:25:11;;;;;;;16.27;5.90;;;20.20;99.90;;;;;;4993614;28;20242;-70
2023/10/02 18:27:39;;;;;;;15.35;4.72;;;20.20;99.90;;;;;;4994017;28;20207;-69
2023/10/02 18:30:09;;;;;;;14.40;4.88;;;20.10;99.90;;;;;;4994003;28;20288;-69
2023/10/02 18:32:37;;;;;;;15.40;5.10;;;20.10;99.90;;;;;;4994069;28;20262;-70
2023/10/02 18:35:05;;;;;;;18.27;5.57;;;20.10;99.90;;;;;;4993730;28;20266;-71
2023/10/02 18:37:33;;;;;;;18.40;5.75;;;20.00;99.90;;;;;;4994019;28;20241;-71
2023/10/02 18:40:00;;;;;;;17.38;5.80;;;20.00;99.90;;;;;;4993814;28;20294;-70
2023/10/02 18:42:27;;;;;;;16.83;5.32;;;20.00;99.90;;;;;;4993553;28;20238;-70
2023/10/02 18:44:54;;;;;;;14.75;5.63;;;19.90;99.90;;;;;;4993946;28;20608;-70
2023/10/02 18:47:22;;;;;;;16.55;5.57;;;19.90;99.90;;;;;;4993884;28;20648;-70
2023/10/02 18:49:50;;;;;;;12.98;5.18;;;19.90;99.90;;;;;;4994159;28;20284;-70
2023/10/02 18:52:17;;;;;;;14.77;5.38;;;19.90;99.90;;;;;;4993459;28;20590;-70
2023/10/02 18:54:44;;;;;;;15.43;5.03;;;19.80;99.90;;;;;;4993199;28;20202;-71
2023/10/02 18:57:11;;;;;;;16.85;5.22;;;19.80;99.90;;;;;;4993271;28;20246;-69
2023/10/02 18:59:40;;;;;;;16.52;5.15;;;19.70;99.90;;;;;;4993196;28;20203;-70
2023/10/02 19:02:07;;;;;;;13.35;5.45;;;19.70;99.90;;;;;;4992444;28;20230;-72
2023/10/02 19:04:35;;;;;;;13.85;5.20;;;19.70;99.90;;;;;;4993139;28;20210;-70
2023/10/02 19:07:03;;;;;;;14.18;5.20;;;19.70;99.90;;;;;;4993299;28;20302;-70
2023/10/02 19:09:30;;;;;;;16.90;5.32;;;19.70;99.90;;;;;;4993764;28;20301;-69
2023/10/02 19:11:58;;;;;;;17.55;5.80;;;19.70;99.90;;;;;;4993117;28;20314;-69
2023/10/02 19:14:25;;;;;;;18.38;5.45;;;19.70;99.90;;;;;;4993216;28;20649;-72
2023/10/02 19:16:51;;;;;;;13.20;4.97;;;19.80;99.90;;;;;;4992829;28;20757;-68
2023/10/02 19:19:19;;;;;;;14.23;5.18;;;19.90;99.90;;;;;;4993306;28;20262;-69
2023/10/02 19:21:48;;;;;;;13.80;5.03;;;19.90;99.90;;;;;;4992881;28;20730;-68
2023/10/02 19:24:15;;;;;;;19.63;6.43;;;19.90;99.90;;;;;;4992438;28;20269;-70
2023/10/02 19:26:42;;;;;;;15.10;5.13;;;20.00;99.90;;;;;;4992355;28;20202;-71
2023/10/02 19:29:09;;;;;;;15.68;5.28;;;20.00;99.90;;;;;;4992519;28;20781;-69
2023/10/02 19:31:36;;;;;;;14.55;5.28;;;20.10;99.90;;;;;;4992613;28;20253;-69
2023/10/02 19:34:05;;;;;;;14.00;4.97;;;20.00;99.90;;;;;;4992809;28;20616;-71
2023/10/02 19:36:33;;;;;;;15.48;5.20;;;20.00;99.90;;;;;;4993130;28;20206;-68
2023/10/02 19:39:04;;;;;;;22.17;5.50;;;20.00;99.90;;;;;;4993036;28;20422;-70
2023/10/02 19:41:32;;;;;;;16.15;5.50;;;19.90;99.90;;;;;;4992470;28;20237;-69
2023/10/02 19:43:59;;;;;;;14.30;5.68;;;20.00;99.90;;;;;;4992859;28;20234;-71
2023/10/02 19:46:26;;;;;;;14.48;5.25;;;19.90;99.90;;;;;;4992769;28;20206;-70
2023/10/02 19:48:53;;;;;;;18.38;6.10;;;20.00;99.90;;;;;;4992893;28;20206;-69
2023/10/02 19:51:22;;;;;;;18.10;5.35;;;20.10;99.90;;;;;;4992843;28;20619;-70
2023/10/02 19:53:50;;;;;;;17.42;6.00;;;20.10;99.90;;;;;;4992830;28;20548;-69
2023/10/02 19:56:19;;;;;;;16.15;5.40;;;20.10;99.90;;;;;;4992446;28;20297;-70
2023/10/02 19:58:46;;;;;;;19.02;6.55;;;20.10;99.90;;;;;;4993229;28;20206;-69
2023/10/02 20:01:12;;;;;;;17.70;5.20;;;20.10;99.90;;;;;;4992494;28;20260;-72
2023/10/02 20:03:39;;;;;;;15.30;5.18;;;20.10;99.90;;;;;;4992583;28;20746;-69
2023/10/02 20:06:07;;;;;;;17.75;6.35;;;20.10;99.90;;;;;;4993051;28;20627;-70
2023/10/02 20:08:34;;;;;;;15.85;5.63;;;20.00;99.90;;;;;;4992286;28;20624;-71
2023/10/02 20:11:02;;;;;;;18.23;6.07;;;20.10;99.90;;;;;;4992393;28;20237;-69
2023/10/02 20:13:31;;;;;;;18.10;6.07;;;20.10;99.90;;;;;;4992685;28;20249;-69
2023/10/02 20:15:58;;;;;;;13.75;5.68;;;20.10;99.90;;;;;;4992903;28;20216;-71
2023/10/02 20:18:25;;;;;;;19.23;5.53;;;20.10;99.90;;;;;;4994279;28;20206;-71
2023/10/02 20:20:52;;;;;;;17.65;6.07;;;20.10;99.90;;;;;;4996189;28;20710;-68
2023/10/02 20:23:20;;;;;;;15.20;5.03;;;20.10;99.90;;;;;;4995956;28;20724;-70
2023/10/02 20:25:46;;;;;;;18.77;6.32;;;20.10;99.90;;;;;;4995689;28;20257;-70
2023/10/02 20:28:13;;;;;;;16.20;5.63;;;20.10;99.90;;;;;;4995534;28;20248;-70
2023/10/02 20:30:42;;;;;;;18.50;5.72;;;20.10;99.90;;;;;;4995632;28;20663;-70
2023/10/02 20:33:10;;;;;;;18.88;5.95;;;20.10;99.90;;;;;;4996290;28;20297;-69
2023/10/02 20:35:38;;;;;;;16.35;5.55;;;20.10;99.90;;;;;;4996148;28;20645;-70
2023/10/02 20:38:06;;;;;;;18.52;5.55;;;20.10;99.90;;;;;;4996101;28;20249;-71
2023/10/02 20:40:34;;;;;;;22.33;6.30;;;20.10;99.90;;;;;;4995866;28;20639;-71
2023/10/02 20:43:03;;;;;;;19.70;6.30;;;20.10;99.90;;;;;;4995602;28;20276;-71
2023/10/02 20:45:30;;;;;;;15.27;5.88;;;20.10;99.90;;;;;;4996230;28;20222;-70
2023/10/02 20:47:58;;;;;;;16.83;6.00;;;20.10;99.90;;;;;;4992745;28;20298;-70
2023/10/02 20:50:26;;;;;;;20.60;6.85;;;20.00;99.90;;;;;;4992309;28;20238;-69
